createdAt,value
2019-05-23T00:00:41.188Z,9.60
2019-05-23T00:03:33.999Z,10.63
2019-05-23T00:06:29.247Z,11.53
2019-05-23T00:09:19.355Z,12.50
2019-05-23T00:11:57.766Z,12.80
2019-05-23T00:14:52.087Z,12.63
2019-05-23T00:17:24.839Z,12.85
2019-05-23T00:19:57.602Z,13.93
2019-05-23T00:22:29.763Z,13.60
2019-05-23T00:25:02.169Z,13.40
2019-05-23T00:27:34.626Z,14.47
2019-05-23T00:30:13.368Z,13.93
2019-05-23T00:32:48.181Z,13.85
2019-05-23T00:35:19.870Z,14.05
2019-05-23T00:37:52.026Z,13.35
2019-05-23T00:40:24.151Z,13.35
2019-05-23T00:42:56.622Z,13.38
2019-05-23T00:45:27.708Z,13.48
2019-05-23T00:48:00.733Z,12.82
2019-05-23T00:50:32.935Z,12.53
2019-05-23T00:53:04.218Z,12.85
2019-05-23T00:55:36.593Z,11.70
2019-05-23T00:58:08.173Z,10.40
2019-05-23T01:00:40.151Z,10.55
2019-05-23T01:03:11.944Z,10.48
2019-05-23T01:05:43.708Z,9.83
2019-05-23T01:08:15.790Z,9.50
2019-05-23T01:10:48.405Z,9.18
2019-05-23T01:13:20.903Z,9.40
2019-05-23T01:15:53.710Z,9.88
2019-05-23T01:18:25.608Z,8.80
2019-05-23T01:21:01.492Z,9.25
2019-05-23T01:23:34.370Z,8.65
2019-05-23T01:26:05.838Z,8.73
2019-05-23T01:28:37.201Z,8.68
2019-05-23T01:31:09.742Z,8.95
2019-05-23T01:33:40.891Z,8.70
2019-05-23T01:36:12.363Z,8.08
2019-05-23T01:38:44.406Z,7.67
2019-05-23T01:41:17.505Z,8.30
2019-05-23T01:43:49.949Z,8.08
2019-05-23T01:46:21.537Z,7.58
2019-05-23T01:48:53.606Z,8.55
2019-05-23T01:51:25.236Z,8.88
2019-05-23T01:53:57.292Z,7.45
2019-05-23T01:56:29.012Z,8.40
2019-05-23T01:59:00.717Z,8.48
2019-05-23T02:01:32.266Z,8.23
2019-05-23T02:04:03.553Z,8.13
2019-05-23T02:06:34.980Z,9.10
2019-05-23T02:09:09.794Z,8.73
2019-05-23T02:11:41.627Z,8.18
2019-05-23T02:14:13.546Z,8.40
2019-05-23T02:16:46.660Z,8.58
2019-05-23T02:19:20.060Z,7.90
2019-05-23T02:21:52.100Z,7.67
2019-05-23T02:24:24.752Z,7.80
2019-05-23T02:26:56.505Z,7.40
2019-05-23T02:29:29.957Z,7.10
2019-05-23T02:32:00.865Z,6.83
2019-05-23T02:34:33.057Z,6.75
2019-05-23T02:37:05.661Z,6.75
2019-05-23T02:39:51.327Z,6.60
2019-05-23T02:42:23.933Z,6.00
2019-05-23T02:44:57.207Z,6.15
2019-05-23T02:47:30.320Z,6.25
2019-05-23T02:50:03.244Z,6.85
2019-05-23T02:52:44.461Z,6.78
2019-05-23T02:55:19.134Z,7.37
2019-05-23T02:57:52.045Z,7.00
2019-05-23T03:00:52.375Z,7.45
2019-05-23T03:03:11.554Z,7.17
2019-05-23T03:05:44.886Z,6.83
2019-05-23T03:08:17.600Z,7.62
2019-05-23T03:10:58.529Z,7.53
2019-05-23T03:13:32.421Z,7.83
2019-05-23T03:16:04.088Z,8.48
2019-05-23T03:18:38.250Z,8.53
2019-05-23T03:21:09.753Z,8.90
2019-05-23T03:23:41.634Z,8.78
2019-05-23T03:26:33.887Z,7.67
2019-05-23T03:29:08.861Z,7.58
2019-05-23T03:31:53.935Z,8.58
2019-05-23T03:34:26.709Z,7.37
2019-05-23T03:36:57.830Z,8.03
2019-05-23T03:39:29.986Z,7.15
2019-05-23T03:42:01.192Z,7.25
2019-05-23T03:44:32.113Z,6.78
2019-05-23T03:47:04.211Z,6.37
2019-05-23T03:49:37.064Z,6.62
2019-05-23T03:52:10.798Z,6.10
2019-05-23T03:54:43.179Z,6.15
2019-05-23T03:57:15.526Z,5.50
2019-05-23T03:59:47.647Z,6.40
2019-05-23T04:02:20.826Z,6.20
2019-05-23T04:04:54.283Z,6.10
2019-05-23T04:07:25.367Z,6.60
2019-05-23T04:09:58.660Z,5.87
2019-05-23T04:12:30.336Z,6.75
2019-05-23T04:15:01.479Z,6.53
2019-05-23T04:23:44.035Z,6.37
2019-05-23T04:26:15.337Z,6.50
2019-05-23T04:28:46.816Z,5.62
2019-05-23T04:31:18.693Z,5.70
2019-05-23T04:33:49.853Z,5.75
2019-05-23T04:36:21.752Z,6.50
2019-05-23T04:38:52.982Z,6.50
2019-05-23T04:41:24.029Z,5.78
2019-05-23T04:43:55.180Z,5.50
2019-05-23T04:46:26.055Z,6.40
2019-05-23T04:48:57.615Z,16.80
2019-05-23T04:51:28.739Z,25.17
2019-05-23T04:54:00.090Z,17.82
2019-05-23T04:56:31.219Z,10.45
2019-05-23T04:59:04.657Z,6.75
2019-05-23T05:01:35.903Z,5.67
2019-05-23T05:04:07.458Z,5.17
2019-05-23T05:06:39.296Z,5.53
2019-05-23T05:09:25.375Z,5.10
2019-05-23T05:11:56.406Z,5.40
2019-05-23T05:14:29.795Z,5.12
2019-05-23T05:17:00.991Z,5.40
2019-05-23T11:18:35.785Z,6.27
2019-05-23T11:21:06.763Z,6.80
2019-05-23T11:23:45.011Z,5.78
2019-05-23T11:26:15.649Z,8.40
2019-05-23T11:28:46.807Z,9.93
2019-05-23T11:31:18.603Z,9.05
2019-05-23T11:33:50.498Z,9.13
2019-05-23T11:36:34.845Z,7.80
2019-05-23T11:38:53.775Z,8.98
2019-05-23T11:41:24.501Z,8.30
2019-05-23T11:43:56.405Z,9.13
2019-05-23T11:46:29.183Z,11.55
2019-05-23T11:49:02.715Z,8.93
2019-05-23T11:51:34.742Z,7.60
2019-05-23T11:54:08.824Z,6.97
2019-05-23T11:56:38.878Z,5.80
2019-05-23T11:59:09.817Z,7.50
2019-05-23T12:01:42.302Z,6.37
2019-05-23T12:04:14.926Z,6.45
2019-05-23T12:06:55.297Z,8.13
2019-05-23T12:09:19.964Z,8.05
2019-05-23T12:11:50.498Z,8.63
2019-05-23T12:14:21.502Z,8.70
2019-05-23T12:16:52.453Z,7.72
2019-05-23T12:19:23.416Z,8.30
2019-05-23T12:21:55.247Z,10.18
2019-05-23T12:24:27.224Z,9.55
2019-05-23T12:26:57.952Z,8.85
2019-05-23T12:29:28.732Z,8.48
2019-05-23T12:31:59.436Z,8.70
2019-05-23T12:34:31.283Z,8.83
2019-05-23T12:37:18.342Z,7.97
2019-05-23T12:39:34.200Z,7.85
2019-05-23T12:42:04.939Z,7.08
2019-05-23T12:44:37.774Z,6.45
2019-05-23T12:47:10.072Z,5.25
2019-05-23T12:49:45.193Z,5.80
2019-05-23T12:52:15.945Z,14.75
2019-05-23T12:54:46.880Z,6.83
2019-05-23T12:57:18.000Z,5.72
2019-05-23T12:59:49.612Z,4.90
2019-05-23T13:02:22.101Z,5.12
2019-05-23T13:04:54.237Z,5.78
2019-05-23T13:07:35.547Z,5.53
2019-05-23T13:09:57.253Z,5.15
2019-05-23T13:12:28.206Z,5.00
2019-05-23T13:15:01.235Z,5.08
2019-05-23T13:17:32.539Z,3.80
2019-05-23T13:20:03.805Z,4.25
2019-05-23T13:22:34.515Z,3.80
2019-05-23T13:25:08.619Z,3.27
2019-05-23T13:27:39.245Z,4.30
2019-05-23T13:30:10.076Z,5.25
2019-05-23T13:32:40.601Z,5.50
2019-05-23T13:35:11.538Z,4.03
2019-05-23T13:37:52.862Z,4.00
2019-05-23T13:40:15.730Z,4.33
2019-05-23T13:42:46.752Z,5.15
2019-05-23T13:45:17.658Z,4.92
2019-05-23T13:47:48.985Z,4.67
2019-05-23T13:50:20.690Z,4.60
2019-05-23T13:52:51.991Z,5.00
2019-05-23T13:55:22.824Z,6.05
2019-05-23T13:57:53.527Z,5.53
2019-05-23T14:00:25.253Z,5.22
2019-05-23T14:02:55.869Z,4.90
2019-05-23T14:05:26.555Z,4.80
2019-05-23T14:08:11.515Z,4.90
2019-05-23T14:10:29.936Z,5.50
2019-05-23T14:13:00.663Z,4.85
2019-05-23T14:15:38.637Z,4.65
2019-05-23T14:18:09.497Z,3.47
2019-05-23T14:20:40.521Z,3.20
2019-05-23T14:23:18.584Z,3.22
2019-05-23T14:25:50.941Z,3.90
2019-05-23T14:28:21.830Z,4.80
2019-05-23T14:30:54.421Z,5.00
2019-05-23T14:33:26.933Z,3.90
2019-05-23T14:36:17.206Z,2.52
2019-05-23T14:38:48.341Z,2.50
2019-05-23T14:41:19.386Z,2.22
2019-05-23T14:43:52.806Z,2.42
2019-05-23T14:46:25.200Z,2.35
2019-05-23T14:48:57.616Z,2.60
2019-05-23T14:51:41.868Z,2.60
2019-05-23T14:54:31.413Z,2.60
2019-05-23T14:57:02.946Z,2.65
2019-05-23T14:59:33.542Z,2.55
2019-05-23T15:02:06.070Z,3.37
2019-05-23T15:04:37.789Z,3.70
2019-05-23T15:07:08.728Z,4.10
2019-05-23T15:09:39.344Z,4.08
2019-05-23T15:12:11.087Z,3.85
2019-05-23T15:14:42.744Z,4.42
2019-05-23T15:17:13.608Z,3.90
2019-05-23T15:19:45.262Z,3.72
2019-05-23T15:22:16.282Z,3.83
2019-05-23T15:24:47.925Z,4.00
2019-05-23T15:27:18.863Z,4.15
2019-05-23T15:29:50.506Z,4.05
2019-05-23T15:32:21.528Z,4.42
2019-05-23T15:34:54.137Z,3.80
2019-05-23T15:37:25.150Z,3.60
2019-05-23T15:39:56.239Z,3.77
2019-05-23T15:42:27.247Z,4.30
2019-05-23T15:44:58.917Z,3.12
2019-05-23T15:47:33.612Z,3.02
2019-05-23T15:50:11.133Z,3.42
2019-05-23T15:52:57.871Z,3.67
2019-05-23T15:55:34.168Z,3.00
2019-05-23T15:58:12.141Z,3.00
2019-05-23T16:00:47.743Z,3.12
2019-05-23T16:03:35.984Z,2.37
2019-05-23T16:06:08.262Z,2.50
2019-05-23T16:08:39.250Z,2.20
2019-05-23T16:11:10.012Z,2.50
2019-05-23T16:13:40.826Z,2.50
2019-05-23T16:16:11.462Z,2.50
2019-05-23T16:18:42.405Z,2.40
2019-05-23T16:21:13.938Z,2.55
2019-05-23T16:23:44.670Z,2.80
2019-05-23T16:26:15.219Z,2.50
2019-05-23T16:28:46.139Z,2.40
2019-05-23T16:31:16.952Z,2.50
2019-05-23T16:33:48.819Z,2.70
2019-05-23T16:36:19.518Z,2.27
2019-05-23T16:38:50.253Z,2.60
2019-05-23T16:41:21.197Z,2.50
2019-05-23T16:43:53.249Z,2.35
2019-05-23T16:46:24.122Z,2.30
2019-05-23T16:48:54.899Z,2.67
2019-05-23T16:51:25.653Z,2.30
2019-05-23T16:53:57.847Z,2.40
2019-05-23T16:56:33.297Z,2.85
2019-05-23T16:59:08.872Z,2.50
2019-05-23T17:01:54.865Z,6.53
2019-05-23T17:04:18.809Z,4.92
2019-05-23T17:06:51.379Z,4.55
2019-05-23T17:09:35.892Z,4.55
2019-05-23T17:12:24.446Z,3.60
2019-05-23T17:15:00.811Z,4.58
2019-05-23T17:18:01.529Z,4.40
2019-05-23T17:20:23.061Z,5.25
2019-05-23T17:23:11.608Z,4.80
2019-05-23T17:25:50.020Z,5.65
2019-05-23T17:28:34.523Z,13.62
2019-05-23T17:31:12.537Z,9.20
2019-05-23T17:33:45.004Z,5.70
2019-05-23T17:36:15.918Z,4.87
2019-05-23T17:38:46.755Z,4.03
2019-05-23T17:41:17.778Z,11.53
2019-05-23T17:43:49.595Z,8.18
2019-05-23T17:46:21.016Z,6.08
2019-05-23T17:48:51.652Z,5.40
2019-05-23T17:51:22.873Z,5.00
2019-05-23T17:53:53.538Z,4.75
2019-05-23T17:56:24.794Z,5.20
2019-05-23T17:58:55.798Z,4.47
2019-05-23T18:01:27.242Z,4.20
2019-05-23T18:03:59.146Z,4.60
2019-05-23T18:06:29.921Z,4.47
2019-05-23T18:09:00.740Z,5.92
2019-05-23T18:11:31.891Z,6.10
2019-05-23T18:14:04.145Z,6.03
2019-05-23T18:16:35.987Z,5.55
2019-05-23T18:19:08.031Z,4.78
2019-05-23T18:21:38.860Z,5.08
2019-05-23T18:27:09.458Z,5.10
2019-05-23T18:29:40.309Z,4.60
2019-05-23T18:32:12.856Z,4.58
2019-05-23T18:34:43.623Z,6.30
2019-05-23T18:37:14.379Z,7.15
2019-05-23T18:39:45.441Z,8.28
2019-05-23T18:42:17.076Z,7.50
2019-05-23T18:44:47.900Z,7.42
2019-05-23T18:47:20.444Z,6.67
2019-05-23T18:49:51.476Z,5.97
2019-05-23T18:52:22.418Z,5.60
2019-05-23T18:54:53.397Z,5.30
2019-05-23T18:57:24.413Z,5.08
2019-05-23T18:59:55.312Z,5.33
2019-05-23T19:02:26.611Z,5.22
2019-05-23T19:04:58.375Z,4.65
2019-05-23T19:07:29.111Z,4.10
2019-05-23T19:10:00.749Z,3.80
2019-05-23T19:12:32.379Z,3.83
2019-05-23T19:15:03.013Z,4.37
2019-05-23T19:17:33.952Z,3.60
2019-05-23T19:20:08.974Z,3.70
2019-05-23T19:22:39.719Z,3.90
2019-05-23T19:25:12.158Z,4.03
2019-05-23T19:27:42.984Z,9.85
2019-05-23T19:30:14.247Z,25.62
2019-05-23T19:32:45.186Z,24.45
2019-05-23T19:35:16.036Z,10.58
2019-05-23T19:37:47.281Z,6.67
2019-05-23T19:40:18.276Z,5.00
2019-05-23T19:42:48.987Z,4.20
2019-05-23T19:45:19.818Z,3.75
2019-05-23T19:47:50.660Z,3.98
2019-05-23T19:50:21.889Z,4.05
2019-05-23T19:52:52.946Z,3.85
2019-05-23T19:55:23.637Z,4.08
2019-05-23T19:57:55.880Z,3.87
2019-05-23T20:00:28.579Z,3.95
2019-05-23T20:03:03.726Z,3.90
2019-05-23T20:05:34.120Z,3.77
2019-05-23T20:08:05.662Z,4.15
2019-05-23T20:10:36.817Z,4.47
2019-05-23T20:13:07.740Z,4.53
2019-05-23T20:15:38.416Z,4.55
2019-05-23T20:18:10.434Z,4.92
2019-05-23T20:20:41.248Z,3.90
2019-05-23T20:23:15.809Z,4.10
2019-05-23T20:25:46.472Z,10.18
2019-05-23T20:28:17.359Z,19.23
2019-05-23T20:30:52.635Z,14.95
2019-05-23T20:33:23.722Z,8.33
2019-05-23T20:35:55.502Z,6.08
2019-05-23T20:38:26.864Z,5.40
2019-05-23T20:40:57.613Z,6.30
2019-05-23T20:43:28.651Z,6.08
2019-05-23T20:45:59.421Z,6.10
2019-05-23T20:48:30.870Z,5.87
2019-05-23T20:51:01.498Z,5.47
2019-05-23T20:53:32.818Z,5.60
2019-05-23T20:56:03.563Z,5.33
2019-05-23T20:58:34.198Z,5.15
2019-05-23T21:01:09.425Z,5.20
2019-05-23T21:03:40.534Z,5.78
2019-05-23T21:06:11.375Z,5.22
2019-05-23T21:08:42.238Z,6.40
2019-05-23T21:11:12.868Z,10.43
2019-05-23T21:13:44.686Z,20.02
2019-05-23T21:16:15.429Z,11.93
2019-05-23T21:18:49.718Z,7.08
2019-05-23T21:21:18.570Z,5.90
2019-05-23T21:23:56.395Z,5.62
2019-05-23T21:26:23.711Z,5.62
2019-05-23T21:28:54.588Z,5.70
2019-05-23T21:31:26.459Z,5.60
2019-05-23T21:33:58.424Z,5.62
2019-05-23T21:36:29.354Z,5.80
2019-05-23T21:39:00.100Z,14.65
2019-05-23T21:41:31.054Z,13.68
2019-05-23T21:44:02.784Z,12.98
2019-05-23T21:46:33.841Z,6.22
2019-05-23T21:49:04.748Z,6.28
2019-05-23T21:51:35.481Z,6.20
2019-05-23T21:54:07.252Z,6.25
2019-05-23T21:56:37.787Z,5.97
2019-05-23T21:59:08.412Z,6.03
2019-05-23T22:01:56.746Z,6.30
2019-05-23T22:04:40.236Z,6.35
2019-05-23T22:07:11.058Z,5.75
2019-05-23T22:09:42.106Z,6.50
2019-05-23T22:12:13.334Z,5.62
2019-05-23T22:14:46.464Z,5.53
2019-05-23T22:17:18.780Z,5.83
2019-05-23T22:19:49.506Z,6.10
2019-05-23T22:22:20.245Z,5.72
2019-05-23T22:24:51.921Z,5.72
2019-05-23T22:27:22.543Z,5.60
2019-05-23T22:29:53.360Z,5.62
2019-05-23T22:32:25.084Z,6.00
2019-05-23T22:34:58.391Z,5.72
2019-05-23T22:37:29.034Z,5.33
2019-05-23T22:39:59.751Z,5.60
2019-05-23T22:42:30.489Z,5.60
2019-05-23T22:45:03.293Z,5.50
2019-05-23T22:47:34.053Z,5.72
2019-05-23T22:50:06.089Z,5.83
2019-05-23T22:52:36.715Z,5.53
2019-05-23T22:55:08.585Z,5.10
2019-05-23T22:57:39.318Z,5.95
2019-05-23T23:00:11.539Z,6.03
2019-05-23T23:02:45.778Z,5.75
2019-05-23T23:05:15.523Z,5.85
2019-05-23T23:07:46.165Z,5.55
2019-05-23T23:10:17.697Z,5.80
2019-05-23T23:12:48.345Z,6.12
2019-05-23T23:15:20.256Z,6.00
2019-05-23T23:17:50.775Z,5.42
2019-05-23T23:20:21.433Z,5.87
2019-05-23T23:22:52.035Z,5.50
2019-05-23T23:25:23.630Z,5.80
2019-05-23T23:27:54.185Z,6.28
2019-05-23T23:30:27.485Z,5.92
2019-05-23T23:32:58.145Z,6.62
2019-05-23T23:35:29.919Z,5.80
2019-05-23T23:38:00.462Z,6.40
2019-05-23T23:40:31.276Z,5.70
2019-05-23T23:43:01.934Z,5.97
2019-05-23T23:45:51.363Z,5.92
2019-05-23T23:48:39.803Z,6.15
2019-05-23T23:51:28.568Z,6.60
2019-05-23T23:54:17.786Z,6.00
2019-05-23T23:57:06.058Z,6.25
2019-05-23T23:59:35.823Z,6.40
